Time;durP1;ratioP1;P1;durP2;ratioP2;P2;SDS_P1;SDS_P2;PMS_P1;PMS_P2;Temp;Humidity;BMP_temperature;BMP_pressure;BME280_temperature;BME280_humidity;BME280_pressure;Samples;Min_cycle;Max_cycle;Signal;HPM_P1;HPM_P2
2022/01/11 00:00:26;;;;;;;72.57;27.05;;;;;;;;;;5091342;28;20032;-65
2022/01/11 00:02:54;;;;;;;64.10;21.95;;;;;;;;;;5091828;28;20363;-66
2022/01/11 00:08:13;;;;;;;36.33;15.50;;;;;;;;;;5009654;28;20049;-64
2022/01/11 00:10:48;;;;;;;36.00;17.10;;;;;;;;;;5010586;28;20080;-63
2022/01/11 00:13:18;;;;;;;44.13;17.88;;;;;;;;;;5008433;28;20459;-66
2022/01/11 00:15:45;;;;;;;37.67;18.33;;;;;;;;;;5010908;28;20488;-65
2022/01/11 00:18:11;;;;;;;31.00;15.13;;;;;;;;;;5013388;28;20081;-65
2022/01/11 00:20:38;;;;;;;50.70;20.02;;;;;;;;;;5012828;28;20058;-63
2022/01/11 00:25:50;;;;;;;31.08;13.30;;;;;;;;;;5013769;28;20034;-66
2022/01/11 00:28:18;;;;;;;37.30;16.20;;;;;;;;;;5000317;28;20125;-64
2022/01/11 00:30:45;;;;;;;50.35;19.45;;;;;;;;;;5004781;28;20046;-65
2022/01/11 00:33:16;;;;;;;73.47;22.33;;;;;;;;;;5007503;28;20498;-64
2022/01/11 00:35:45;;;;;;;59.17;21.95;;;;;;;;;;5012366;28;20029;-65
2022/01/11 00:38:15;;;;;;;74.85;23.50;;;;;;;;;;5007450;28;20042;-66
2022/01/11 00:40:48;;;;;;;62.42;21.52;;;;;;;;;;5010157;28;20042;-65
2022/01/11 00:43:19;;;;;;;61.05;22.40;;;;;;;;;;4999265;28;20566;-65
2022/01/11 00:45:45;;;;;;;42.13;17.10;;;;;;;;;;5067124;28;20551;-66
2022/01/11 00:48:11;;;;;;;74.07;22.90;;;;;;;;;;5093883;28;20103;-66
2022/01/11 00:50:37;;;;;;;69.07;22.63;;;;;;;;;;5087999;28;20162;-65
2022/01/11 00:53:08;;;;;;;58.10;20.63;;;;;;;;;;5095138;28;20029;-62
2022/01/11 00:55:35;;;;;;;67.60;20.23;;;;;;;;;;5094955;28;20042;-66
2022/01/11 00:58:02;;;;;;;50.70;17.33;;;;;;;;;;5094262;28;20035;-64
2022/01/11 01:00:29;;;;;;;30.83;15.45;;;;;;;;;;5086792;28;20055;-59
2022/01/11 01:02:55;;;;;;;36.50;14.15;;;;;;;;;;5076103;28;20027;-59
2022/01/11 01:05:21;;;;;;;46.95;15.98;;;;;;;;;;5085396;28;20032;-61
2022/01/11 01:07:48;;;;;;;50.10;17.70;;;;;;;;;;5094736;28;20023;-66
2022/01/11 01:10:26;;;;;;;52.63;19.35;;;;;;;;;;5087352;28;20058;-66
2022/01/11 01:12:56;;;;;;;53.70;17.30;;;;;;;;;;5094870;28;20529;-66
2022/01/11 01:15:22;;;;;;;;;;;;;;;;;;5084857;28;20056;-66
2022/01/11 01:17:48;;;;;;;52.63;18.38;;;;;;;;;;5087800;28;19959;-65
2022/01/11 01:20:14;;;;;;;64.10;19.52;;;;;;;;;;5084368;28;20021;-66
2022/01/11 01:22:39;;;;;;;56.47;18.55;;;;;;;;;;5090393;28;20028;-66
2022/01/11 01:25:06;;;;;;;63.47;20.38;;;;;;;;;;5093726;28;20024;-66
2022/01/11 01:27:31;;;;;;;53.58;20.50;;;;;;;;;;5091889;28;20028;-66
2022/01/11 01:29:56;;;;;;;40.78;15.43;;;;;;;;;;5065056;28;20023;-66
2022/01/11 01:32:23;;;;;;;29.58;14.18;;;;;;;;;;5094583;28;20024;-66
2022/01/11 01:34:49;;;;;;;35.03;15.20;;;;;;;;;;5080551;28;20053;-66
2022/01/11 01:37:15;;;;;;;20.52;10.07;;;;;;;;;;5092253;28;20049;-66
2022/01/11 01:39:42;;;;;;;42.45;16.13;;;;;;;;;;5094631;28;20098;-68
2022/01/11 01:42:11;;;;;;;43.97;16.25;;;;;;;;;;5092495;28;20107;-66
2022/01/11 01:44:36;;;;;;;43.10;16.95;;;;;;;;;;5085834;28;20120;-66
2022/01/11 01:47:02;;;;;;;42.55;16.60;;;;;;;;;;5094154;28;20060;-66
2022/01/11 01:49:29;;;;;;;21.35;10.20;;;;;;;;;;5071700;28;20077;-65
2022/01/11 01:51:54;;;;;;;40.55;15.50;;;;;;;;;;5110007;28;20429;-65
2022/01/11 01:54:23;;;;;;;28.95;15.52;;;;;;;;;;5093916;28;20056;-66
2022/01/11 01:56:49;;;;;;;33.30;13.48;;;;;;;;;;5093777;28;20089;-66
2022/01/11 01:59:14;;;;;;;35.63;14.20;;;;;;;;;;5093627;28;20493;-67
2022/01/11 02:01:46;;;;;;;36.40;15.60;;;;;;;;;;5079640;28;20063;-66
2022/01/11 02:04:11;;;;;;;37.25;13.75;;;;;;;;;;5082222;28;20477;-66
2022/01/11 02:06:37;;;;;;;28.98;10.48;;;;;;;;;;5082355;28;20255;-65
2022/01/11 02:09:03;;;;;;;36.85;15.13;;;;;;;;;;5093741;28;20070;-65
2022/01/11 02:11:31;;;;;;;36.30;15.95;;;;;;;;;;5093425;28;20028;-66
2022/01/11 02:13:56;;;;;;;30.35;11.07;;;;;;;;;;5093395;28;21250;-65
2022/01/11 02:16:23;;;;;;;23.77;12.15;;;;;;;;;;5093445;28;20060;-66
2022/01/11 02:18:49;;;;;;;34.72;15.95;;;;;;;;;;5070952;28;20052;-65
2022/01/11 02:21:15;;;;;;;34.60;14.60;;;;;;;;;;5094028;28;20016;-66
2022/01/11 02:23:40;;;;;;;29.60;13.45;;;;;;;;;;5084173;28;20360;-64
2022/01/11 02:26:06;;;;;;;26.98;7.80;;;;;;;;;;5092746;28;20077;-62
2022/01/11 02:28:32;;;;;;;29.77;13.90;;;;;;;;;;5093471;28;20020;-62
2022/01/11 02:31:00;;;;;;;40.10;14.98;;;;;;;;;;5090752;28;20028;-64
2022/01/11 02:33:35;;;;;;;15.50;7.05;;;;;;;;;;5093288;28;20470;-58
2022/01/11 02:36:07;;;;;;;33.10;13.45;;;;;;;;;;5088223;28;20085;-63
2022/01/11 02:38:33;;;;;;;37.05;15.20;;;;;;;;;;5084762;28;20394;-62
2022/01/11 02:40:58;;;;;;;35.20;15.93;;;;;;;;;;5090197;28;20040;-65
2022/01/11 02:43:26;;;;;;;35.50;14.15;;;;;;;;;;5092614;28;20056;-62
2022/01/11 02:45:52;;;;;;;33.83;14.13;;;;;;;;;;5085846;28;20073;-60
2022/01/11 02:48:18;;;;;;;38.47;15.98;;;;;;;;;;5092350;28;20032;-66
2022/01/11 02:50:48;;;;;;;35.00;14.43;;;;;;;;;;5092577;28;20024;-65
2022/01/11 02:53:14;;;;;;;43.83;15.48;;;;;;;;;;5061838;28;20032;-64
2022/01/11 02:55:43;;;;;;;32.75;14.95;;;;;;;;;;5080760;28;20055;-66
2022/01/11 02:58:09;;;;;;;18.50;8.05;;;;;;;;;;5093275;28;20107;-65
2022/01/11 03:00:35;;;;;;;35.92;14.68;;;;;;;;;;5092792;28;20024;-65
2022/01/11 03:03:22;;;;;;;36.38;14.70;;;;;;;;;;5103355;28;20091;-66
2022/01/11 03:05:52;;;;;;;40.20;15.07;;;;;;;;;;5093003;28;20028;-64
2022/01/11 03:08:18;;;;;;;25.13;11.88;;;;;;;;;;5088257;28;20367;-65
2022/01/11 03:10:45;;;;;;;39.50;16.90;;;;;;;;;;5085337;28;20036;-63
2022/01/11 03:13:11;;;;;;;39.92;15.25;;;;;;;;;;5100529;28;20024;-60
2022/01/11 03:15:38;;;;;;;38.13;15.05;;;;;;;;;;5092778;28;20385;-65
2022/01/11 03:18:05;;;;;;;40.85;15.70;;;;;;;;;;5092575;28;20436;-64
2022/01/11 03:20:35;;;;;;;27.75;11.70;;;;;;;;;;5091094;28;20056;-64
2022/01/11 03:23:01;;;;;;;33.90;14.52;;;;;;;;;;5092381;28;20028;-65
2022/01/11 03:25:26;;;;;;;22.75;11.23;;;;;;;;;;5092306;28;20039;-64
2022/01/11 03:27:52;;;;;;;36.92;13.95;;;;;;;;;;5092463;28;20016;-65
2022/01/11 03:30:18;;;;;;;23.70;11.00;;;;;;;;;;5092456;28;20024;-62
2022/01/11 03:32:44;;;;;;;34.60;14.10;;;;;;;;;;5079026;28;20051;-66
2022/01/11 03:35:11;;;;;;;31.00;14.68;;;;;;;;;;5092694;28;20471;-66
2022/01/11 03:37:38;;;;;;;29.88;11.38;;;;;;;;;;5090486;28;20055;-62
2022/01/11 03:40:06;;;;;;;31.35;12.55;;;;;;;;;;5085558;28;20405;-66
2022/01/11 03:42:32;;;;;;;22.23;11.48;;;;;;;;;;5095086;28;20501;-65
2022/01/11 03:44:57;;;;;;;30.90;13.32;;;;;;;;;;5092028;28;20024;-66
2022/01/11 03:47:23;;;;;;;18.77;8.95;;;;;;;;;;5092156;28;20061;-65
2022/01/11 03:49:48;;;;;;;32.65;13.90;;;;;;;;;;5094093;28;20028;-63
2022/01/11 03:52:14;;;;;;;22.27;9.40;;;;;;;;;;5096345;28;20032;-66
2022/01/11 03:55:01;;;;;;;41.13;15.10;;;;;;;;;;5096577;28;20031;-65
2022/01/11 03:57:31;;;;;;;23.02;10.48;;;;;;;;;;5096638;28;20063;-58
2022/01/11 03:59:58;;;;;;;30.10;12.98;;;;;;;;;;5096290;28;20056;-57
2022/01/11 04:02:25;;;;;;;22.10;11.40;;;;;;;;;;5096519;28;20024;-58
2022/01/11 04:04:53;;;;;;;32.40;13.05;;;;;;;;;;5096218;28;20021;-58
2022/01/11 04:07:20;;;;;;;35.85;14.20;;;;;;;;;;5096406;28;20103;-60
2022/01/11 04:09:47;;;;;;;40.83;15.77;;;;;;;;;;5095829;28;20020;-59
2022/01/11 04:12:14;;;;;;;18.58;8.88;;;;;;;;;;5101946;28;20032;-56
2022/01/11 04:14:40;;;;;;;35.83;14.52;;;;;;;;;;5098694;28;20030;-62
2022/01/11 04:17:05;;;;;;;41.75;16.38;;;;;;;;;;5096395;28;20024;-66
2022/01/11 04:19:31;;;;;;;18.48;8.98;;;;;;;;;;5096049;28;20028;-66
2022/01/11 04:21:57;;;;;;;48.25;16.98;;;;;;;;;;5091797;28;20104;-61
2022/01/11 04:24:23;;;;;;;35.65;13.93;;;;;;;;;;5096050;28;20081;-60
2022/01/11 04:26:49;;;;;;;34.88;15.15;;;;;;;;;;5095614;28;20032;-54
2022/01/11 04:29:15;;;;;;;33.30;14.85;;;;;;;;;;5095270;28;20024;-62
2022/01/11 04:31:40;;;;;;;40.88;14.60;;;;;;;;;;5095550;28;20043;-59
2022/01/11 04:34:06;;;;;;;39.78;15.77;;;;;;;;;;5085978;28;20031;-59
2022/01/11 04:36:33;;;;;;;39.13;16.45;;;;;;;;;;5079606;28;20505;-58
2022/01/11 04:38:59;;;;;;;36.78;15.40;;;;;;;;;;5088790;28;20028;-60
2022/01/11 04:41:25;;;;;;;39.28;16.10;;;;;;;;;;5095276;28;20115;-59
2022/01/11 04:43:50;;;;;;;43.95;16.80;;;;;;;;;;5095872;28;20102;-59
2022/01/11 04:46:18;;;;;;;42.85;15.90;;;;;;;;;;5089973;28;20407;-58
2022/01/11 04:48:45;;;;;;;37.33;16.52;;;;;;;;;;5086244;28;20036;-59
2022/01/11 04:51:10;;;;;;;39.15;15.48;;;;;;;;;;5094694;28;20370;-61
2022/01/11 04:53:36;;;;;;;38.63;15.55;;;;;;;;;;5095502;28;20024;-64
2022/01/11 04:56:02;;;;;;;36.05;13.90;;;;;;;;;;5095179;28;20020;-62
2022/01/11 04:58:27;;;;;;;32.53;14.35;;;;;;;;;;5095544;28;20024;-56
2022/01/11 05:00:53;;;;;;;37.15;15.63;;;;;;;;;;5093828;28;20024;-60
2022/01/11 05:03:19;;;;;;;42.00;16.25;;;;;;;;;;5095178;28;20020;-59
2022/01/11 05:05:46;;;;;;;38.10;16.38;;;;;;;;;;5094801;28;20095;-60
2022/01/11 05:08:12;;;;;;;39.17;15.77;;;;;;;;;;5102492;28;20026;-62
2022/01/11 05:10:42;;;;;;;32.70;14.65;;;;;;;;;;5095366;28;20070;-61
2022/01/11 05:13:13;;;;;;;42.53;16.10;;;;;;;;;;5095133;28;20028;-58
2022/01/11 05:15:39;;;;;;;40.17;16.95;;;;;;;;;;5076660;28;20024;-53
2022/01/11 05:18:06;;;;;;;36.80;14.00;;;;;;;;;;5094559;28;20052;-58
2022/01/11 05:20:31;;;;;;;40.47;16.83;;;;;;;;;;5094828;28;20490;-53
2022/01/11 05:22:57;;;;;;;37.35;14.85;;;;;;;;;;5094906;28;20028;-56
2022/01/11 05:25:22;;;;;;;38.25;14.50;;;;;;;;;;5094613;28;20028;-62
2022/01/11 05:27:48;;;;;;;32.70;11.23;;;;;;;;;;5094447;28;20016;-57
2022/01/11 05:30:14;;;;;;;29.67;11.90;;;;;;;;;;5094519;28;20477;-62
2022/01/11 05:32:41;;;;;;;35.90;14.35;;;;;;;;;;5094214;28;20532;-61
2022/01/11 05:35:09;;;;;;;42.03;15.48;;;;;;;;;;5094575;28;20069;-56
2022/01/11 05:37:34;;;;;;;51.28;16.55;;;;;;;;;;5094186;28;20051;-59
2022/01/11 05:40:00;;;;;;;27.80;12.70;;;;;;;;;;5094475;28;20016;-60
2022/01/11 05:42:26;;;;;;;32.30;13.32;;;;;;;;;;5094410;28;20387;-58
2022/01/11 05:44:52;;;;;;;44.28;16.02;;;;;;;;;;5094519;28;20032;-62
2022/01/11 05:47:17;;;;;;;42.85;16.67;;;;;;;;;;5093975;28;20031;-59
2022/01/11 05:49:43;;;;;;;51.53;17.70;;;;;;;;;;5094366;28;20032;-60
2022/01/11 05:52:08;;;;;;;44.00;16.73;;;;;;;;;;5094127;28;20059;-60
2022/01/11 05:54:34;;;;;;;49.40;18.23;;;;;;;;;;5094058;28;20060;-62
2022/01/11 05:56:59;;;;;;;45.47;17.58;;;;;;;;;;5094086;28;20023;-60
2022/01/11 05:59:25;;;;;;;46.92;17.70;;;;;;;;;;5094657;28;20469;-62
2022/01/11 06:01:50;;;;;;;49.53;19.90;;;;;;;;;;5099927;28;20081;-59
2022/01/11 06:04:16;;;;;;;49.95;16.58;;;;;;;;;;5094059;28;20032;-63
2022/01/11 06:06:41;;;;;;;44.38;16.25;;;;;;;;;;5093790;28;20032;-62
2022/01/11 06:09:07;;;;;;;42.67;18.17;;;;;;;;;;5094148;28;20081;-60
2022/01/11 06:11:32;;;;;;;40.70;16.60;;;;;;;;;;5095069;28;20104;-63
2022/01/11 06:13:58;;;;;;;51.53;18.42;;;;;;;;;;5093850;28;20532;-60
2022/01/11 06:16:23;;;;;;;42.50;15.93;;;;;;;;;;5093646;28;20028;-63
2022/01/11 06:18:49;;;;;;;48.33;17.08;;;;;;;;;;5090450;28;20469;-61
2022/01/11 06:21:15;;;;;;;44.50;16.52;;;;;;;;;;5079484;28;20394;-59
2022/01/11 06:23:40;;;;;;;47.55;18.13;;;;;;;;;;5091754;28;20479;-64
2022/01/11 06:26:06;;;;;;;47.13;17.42;;;;;;;;;;5093385;28;20106;-60
2022/01/11 06:28:31;;;;;;;43.92;17.38;;;;;;;;;;5093367;28;20521;-57
2022/01/11 06:30:57;;;;;;;44.55;17.10;;;;;;;;;;5093199;28;20038;-62
2022/01/11 06:33:23;;;;;;;47.38;17.08;;;;;;;;;;5093188;28;20107;-60
2022/01/11 06:35:48;;;;;;;47.45;18.35;;;;;;;;;;5093451;28;20020;-62
2022/01/11 06:38:14;;;;;;;37.78;16.63;;;;;;;;;;5086587;28;20426;-54
2022/01/11 06:40:40;;;;;;;49.33;18.00;;;;;;;;;;5082425;28;20389;-56
2022/01/11 06:43:07;;;;;;;42.15;16.83;;;;;;;;;;5076751;28;20024;-59
2022/01/11 06:45:36;;;;;;;43.33;17.77;;;;;;;;;;5092985;28;20024;-56
2022/01/11 06:48:01;;;;;;;47.50;16.70;;;;;;;;;;5085463;28;20111;-56
2022/01/11 06:50:27;;;;;;;31.90;13.27;;;;;;;;;;5072802;28;20055;-59
2022/01/11 06:52:53;;;;;;;30.50;13.00;;;;;;;;;;5072305;28;20085;-63
2022/01/11 06:55:21;;;;;;;23.70;11.10;;;;;;;;;;5085973;28;20020;-64
2022/01/11 06:57:48;;;;;;;56.25;18.90;;;;;;;;;;5073393;28;20035;-64
2022/01/11 07:00:14;;;;;;;36.22;13.68;;;;;;;;;;5072653;28;20146;-63
2022/01/11 07:02:40;;;;;;;29.58;12.95;;;;;;;;;;5082350;28;20325;-65
2022/01/11 07:05:06;;;;;;;47.47;17.75;;;;;;;;;;5092873;28;20462;-65
2022/01/11 07:07:31;;;;;;;42.30;15.75;;;;;;;;;;5092594;28;20036;-65
2022/01/11 07:09:57;;;;;;;51.88;18.38;;;;;;;;;;5092576;28;20107;-64
2022/01/11 07:12:23;;;;;;;33.72;14.25;;;;;;;;;;5092876;28;20394;-62
2022/01/11 07:14:58;;;;;;;47.40;19.73;;;;;;;;;;5074193;28;20020;-64
2022/01/11 07:17:25;;;;;;;61.03;21.27;;;;;;;;;;5093637;28;20032;-64
2022/01/11 07:19:50;;;;;;;51.08;21.00;;;;;;;;;;5087314;28;20505;-65
2022/01/11 07:22:16;;;;;;;58.72;21.35;;;;;;;;;;5092754;28;20028;-64
2022/01/11 07:24:41;;;;;;;63.30;24.20;;;;;;;;;;5091884;28;20035;-64
2022/01/11 07:27:07;;;;;;;58.55;23.25;;;;;;;;;;5092542;28;20382;-60
2022/01/11 07:29:32;;;;;;;64.13;25.52;;;;;;;;;;5092462;28;20017;-65
2022/01/11 07:31:58;;;;;;;64.18;25.85;;;;;;;;;;5092580;28;20034;-58
2022/01/11 07:34:23;;;;;;;70.53;27.80;;;;;;;;;;5092415;28;20020;-54
2022/01/11 07:36:49;;;;;;;63.88;24.08;;;;;;;;;;5102638;28;20047;-63
2022/01/11 07:39:14;;;;;;;67.47;25.63;;;;;;;;;;5092645;28;20031;-64
2022/01/11 07:41:40;;;;;;;60.95;23.00;;;;;;;;;;5092349;28;20027;-64
2022/01/11 07:44:06;;;;;;;69.63;24.55;;;;;;;;;;5098400;28;20049;-55
2022/01/11 07:46:32;;;;;;;58.38;20.30;;;;;;;;;;5098470;28;20031;-57
2022/01/11 07:48:59;;;;;;;64.32;22.33;;;;;;;;;;5090619;28;20505;-64
2022/01/11 07:51:25;;;;;;;59.58;22.25;;;;;;;;;;5078647;28;20071;-60
2022/01/11 07:53:52;;;;;;;61.47;22.13;;;;;;;;;;5084010;28;20052;-58
2022/01/11 07:56:18;;;;;;;51.88;20.98;;;;;;;;;;5083722;28;20036;-59
2022/01/11 07:58:44;;;;;;;47.50;16.02;;;;;;;;;;5086518;28;20528;-56
2022/01/11 08:01:09;;;;;;;47.28;20.20;;;;;;;;;;5088997;28;20032;-62
2022/01/11 08:03:36;;;;;;;58.80;20.00;;;;;;;;;;5083459;28;20074;-59
2022/01/11 08:06:01;;;;;;;59.50;21.67;;;;;;;;;;5091304;28;20040;-57
2022/01/11 08:08:26;;;;;;;50.53;20.05;;;;;;;;;;5090715;28;20117;-58
2022/01/11 08:10:53;;;;;;;54.67;21.13;;;;;;;;;;5090166;28;20097;-66
2022/01/11 08:13:19;;;;;;;57.78;22.25;;;;;;;;;;5084006;28;20103;-66
2022/01/11 08:15:44;;;;;;;60.30;21.95;;;;;;;;;;5091100;28;20446;-63
2022/01/11 08:18:10;;;;;;;58.80;22.55;;;;;;;;;;5085772;28;20119;-61
2022/01/11 08:20:35;;;;;;;62.30;23.63;;;;;;;;;;5088160;28;20123;-57
2022/01/11 08:23:01;;;;;;;54.28;21.85;;;;;;;;;;5084670;28;20039;-64
2022/01/11 08:25:27;;;;;;;55.70;20.05;;;;;;;;;;5086099;28;20028;-66
2022/01/11 08:27:53;;;;;;;53.75;19.83;;;;;;;;;;5088558;28;20384;-65
2022/01/11 08:30:18;;;;;;;58.33;22.45;;;;;;;;;;5086910;28;20032;-54
2022/01/11 08:32:44;;;;;;;57.72;22.25;;;;;;;;;;5083736;28;20516;-65
2022/01/11 08:35:10;;;;;;;60.67;24.10;;;;;;;;;;5090497;28;20028;-66
2022/01/11 08:37:35;;;;;;;47.88;18.30;;;;;;;;;;5093621;28;20402;-61
2022/01/11 08:40:01;;;;;;;48.97;19.98;;;;;;;;;;5072843;28;20032;-65
2022/01/11 08:42:29;;;;;;;54.83;22.80;;;;;;;;;;5093845;28;20106;-64
2022/01/11 08:44:55;;;;;;;54.58;23.25;;;;;;;;;;5093507;28;20498;-66
2022/01/11 08:47:21;;;;;;;57.85;22.70;;;;;;;;;;5094190;28;20032;-63
2022/01/11 08:49:47;;;;;;;52.72;23.30;;;;;;;;;;5090901;28;20043;-66
2022/01/11 08:52:14;;;;;;;58.65;23.92;;;;;;;;;;5094851;28;20381;-67
2022/01/11 08:54:39;;;;;;;62.05;25.80;;;;;;;;;;5076006;28;20031;-64
2022/01/11 08:57:06;;;;;;;53.95;23.88;;;;;;;;;;5094544;28;20077;-64
2022/01/11 08:59:31;;;;;;;54.50;24.20;;;;;;;;;;5086344;28;20067;-65
2022/01/11 09:01:59;;;;;;;49.83;22.70;;;;;;;;;;5091672;28;20051;-66
2022/01/11 09:04:26;;;;;;;52.53;24.05;;;;;;;;;;5093049;28;20024;-60
2022/01/11 09:06:53;;;;;;;53.53;22.88;;;;;;;;;;5076122;28;20066;-66
2022/01/11 09:09:19;;;;;;;54.78;24.50;;;;;;;;;;5087787;28;20020;-63
2022/01/11 09:11:46;;;;;;;56.90;24.45;;;;;;;;;;5083870;28;20030;-60
2022/01/11 09:14:11;;;;;;;53.63;24.20;;;;;;;;;;5093569;28;20016;-59
2022/01/11 09:16:37;;;;;;;57.58;24.35;;;;;;;;;;5094615;28;20085;-65
2022/01/11 09:19:02;;;;;;;55.35;23.80;;;;;;;;;;5080962;28;20028;-59
2022/01/11 09:21:30;;;;;;;50.08;21.48;;;;;;;;;;5094406;28;20032;-60
2022/01/11 09:23:55;;;;;;;51.92;23.95;;;;;;;;;;5094704;28;20028;-59
2022/01/11 09:26:21;;;;;;;51.85;22.00;;;;;;;;;;5081204;28;20024;-58
2022/01/11 09:28:46;;;;;;;52.75;23.02;;;;;;;;;;5090740;28;20386;-66
2022/01/11 09:31:12;;;;;;;51.63;21.83;;;;;;;;;;5094318;28;20382;-53
2022/01/11 09:33:37;;;;;;;53.42;22.70;;;;;;;;;;5087500;28;20122;-58
2022/01/11 09:36:03;;;;;;;59.95;24.13;;;;;;;;;;5094244;28;20069;-60
2022/01/11 09:38:29;;;;;;;43.25;17.75;;;;;;;;;;5091742;28;20035;-60
2022/01/11 09:40:56;;;;;;;51.95;22.35;;;;;;;;;;5086877;28;20107;-58
2022/01/11 09:43:24;;;;;;;40.65;17.35;;;;;;;;;;5094080;28;20524;-57
2022/01/11 09:45:51;;;;;;;44.75;18.75;;;;;;;;;;5080625;28;20496;-64
2022/01/11 09:48:22;;;;;;;30.50;16.05;;;;;;;;;;5093721;28;20109;-63
2022/01/11 09:50:48;;;;;;;31.90;13.90;;;;;;;;;;5091946;28;20421;-64
2022/01/11 09:53:14;;;;;;;50.55;18.77;;;;;;;;;;5086584;28;20036;-62
2022/01/11 09:55:41;;;;;;;39.38;18.65;;;;;;;;;;5085073;28;20077;-58
2022/01/11 09:58:07;;;;;;;38.13;17.70;;;;;;;;;;5091859;28;20032;-63
2022/01/11 10:00:33;;;;;;;42.15;18.70;;;;;;;;;;5087644;28;20020;-63
2022/01/11 10:02:59;;;;;;;59.63;20.63;;;;;;;;;;5085174;28;20111;-62
2022/01/11 10:05:25;;;;;;;52.95;21.40;;;;;;;;;;5080869;28;20541;-64
2022/01/11 10:07:50;;;;;;;56.70;21.15;;;;;;;;;;5092188;28;20028;-65
2022/01/11 10:10:22;;;;;;;44.08;19.77;;;;;;;;;;5086747;28;20039;-59
2022/01/11 10:12:58;;;;;;;45.50;17.70;;;;;;;;;;5086247;28;20044;-64
2022/01/11 10:15:32;;;;;;;39.40;16.70;;;;;;;;;;5086056;28;20034;-65
2022/01/11 10:17:58;;;;;;;42.92;17.80;;;;;;;;;;5089251;28;20470;-63
2022/01/11 10:20:25;;;;;;;51.00;20.17;;;;;;;;;;5093162;28;20032;-61
2022/01/11 10:23:00;;;;;;;54.22;18.08;;;;;;;;;;5077840;28;20498;-64
2022/01/11 10:25:26;;;;;;;42.42;18.13;;;;;;;;;;5078007;28;20155;-64
2022/01/11 10:27:59;;;;;;;34.90;15.60;;;;;;;;;;5083918;28;20370;-65
2022/01/11 10:30:26;;;;;;;58.88;22.08;;;;;;;;;;5090448;28;20055;-65
2022/01/11 10:32:54;;;;;;;55.72;21.73;;;;;;;;;;5084782;28;20077;-66
2022/01/11 10:35:29;;;;;;;57.80;22.13;;;;;;;;;;5086365;28;20438;-65
2022/01/11 10:37:59;;;;;;;45.70;20.33;;;;;;;;;;5080712;28;20518;-64
2022/01/11 10:40:55;;;;;;;45.83;20.63;;;;;;;;;;5080484;28;20465;-64
2022/01/11 10:43:22;;;;;;;48.35;18.70;;;;;;;;;;5076732;28;20075;-64
2022/01/11 10:45:53;;;;;;;46.50;17.85;;;;;;;;;;5090362;28;20367;-64
2022/01/11 10:48:21;;;;;;;49.97;20.77;;;;;;;;;;5081464;28;20494;-66
2022/01/11 10:50:52;;;;;;;49.95;20.38;;;;;;;;;;5083927;28;20097;-66
2022/01/11 10:53:28;;;;;;;43.65;19.95;;;;;;;;;;5092387;28;20032;-65
2022/01/11 10:55:59;;;;;;;49.03;19.65;;;;;;;;;;5092584;28;20032;-64
2022/01/11 10:58:28;;;;;;;46.90;19.20;;;;;;;;;;5088051;28;20067;-65
2022/01/11 11:00:55;;;;;;;57.55;20.27;;;;;;;;;;5085671;28;20478;-65
2022/01/11 11:03:23;;;;;;;51.55;20.23;;;;;;;;;;5081836;28;20028;-61
2022/01/11 11:05:54;;;;;;;46.22;18.85;;;;;;;;;;5069155;28;20024;-64
2022/01/11 11:08:23;;;;;;;49.20;19.23;;;;;;;;;;5086756;28;20435;-66
2022/01/11 11:11:02;;;;;;;47.38;18.23;;;;;;;;;;5087149;28;20039;-65
2022/01/11 11:13:27;;;;;;;49.90;19.42;;;;;;;;;;5084412;28;20119;-66
2022/01/11 11:15:56;;;;;;;42.00;18.35;;;;;;;;;;5088626;28;20099;-62
2022/01/11 11:18:37;;;;;;;42.13;18.35;;;;;;;;;;5087893;28;20096;-67
2022/01/11 11:21:32;;;;;;;45.05;18.77;;;;;;;;;;5091398;28;20490;-66
2022/01/11 11:24:04;;;;;;;45.88;17.75;;;;;;;;;;5091197;28;20466;-66
2022/01/11 11:26:48;;;;;;;34.45;16.27;;;;;;;;;;5079074;28;20025;-65
2022/01/11 11:29:14;;;;;;;54.28;21.75;;;;;;;;;;5076552;28;20028;-59
2022/01/11 11:31:40;;;;;;;50.00;20.95;;;;;;;;;;5085629;28;20378;-64
2022/01/11 11:34:09;;;;;;;50.78;22.35;;;;;;;;;;5092154;28;20145;-61
2022/01/11 11:36:40;;;;;;;49.92;22.20;;;;;;;;;;5091846;28;20508;-61
2022/01/11 11:39:11;;;;;;;45.95;19.02;;;;;;;;;;5092281;28;20024;-57
2022/01/11 11:41:41;;;;;;;48.85;21.65;;;;;;;;;;5077543;28;20029;-61
2022/01/11 11:44:09;;;;;;;44.92;20.25;;;;;;;;;;5092075;28;20081;-63
2022/01/11 11:46:47;;;;;;;49.53;22.42;;;;;;;;;;5092160;28;20016;-65
2022/01/11 11:49:14;;;;;;;44.08;20.20;;;;;;;;;;5073809;28;20035;-57
2022/01/11 11:51:41;;;;;;;41.60;18.55;;;;;;;;;;5087439;28;20398;-63
2022/01/11 11:54:12;;;;;;;51.50;21.92;;;;;;;;;;5061721;28;20020;-59
2022/01/11 11:56:37;;;;;;;40.05;19.02;;;;;;;;;;5084948;28;20051;-65
2022/01/11 11:59:09;;;;;;;46.60;20.20;;;;;;;;;;5084300;28;20431;-61
2022/01/11 12:01:42;;;;;;;43.97;18.77;;;;;;;;;;5082969;28;20025;-61
2022/01/11 12:04:31;;;;;;;46.53;20.95;;;;;;;;;;5091566;28;20043;-61
2022/01/11 12:06:57;;;;;;;46.17;20.90;;;;;;;;;;5074670;28;20067;-64
2022/01/11 12:09:28;;;;;;;43.30;17.05;;;;;;;;;;5088630;28;20028;-66
2022/01/11 12:11:54;;;;;;;45.25;18.70;;;;;;;;;;5095205;28;20111;-60
2022/01/11 12:14:36;;;;;;;42.83;19.98;;;;;;;;;;5089303;28;20111;-59
2022/01/11 12:17:25;;;;;;;47.92;20.40;;;;;;;;;;5079181;28;20059;-66
2022/01/11 12:19:53;;;;;;;45.13;20.48;;;;;;;;;;5079686;28;20028;-65
2022/01/11 12:22:31;;;;;;;40.92;19.23;;;;;;;;;;5082764;28;20037;-66
2022/01/11 12:25:02;;;;;;;50.38;21.08;;;;;;;;;;5087892;28;20441;-64
2022/01/11 12:27:28;;;;;;;46.53;19.38;;;;;;;;;;5081219;28;20028;-63
2022/01/11 12:30:00;;;;;;;44.85;18.17;;;;;;;;;;5095320;28;20028;-65
2022/01/11 12:32:28;;;;;;;58.80;20.40;;;;;;;;;;5090063;28;20367;-66
2022/01/11 12:34:55;;;;;;;45.22;19.50;;;;;;;;;;5087927;28;20035;-60
2022/01/11 12:37:43;;;;;;;48.42;18.45;;;;;;;;;;5085431;28;20044;-65
2022/01/11 12:40:15;;;;;;;38.97;17.10;;;;;;;;;;5094695;28;20112;-66
2022/01/11 12:42:51;;;;;;;48.65;16.33;;;;;;;;;;5092587;28;20032;-66
2022/01/11 12:45:45;;;;;;;38.85;16.27;;;;;;;;;;5085530;28;20104;-66
2022/01/11 12:48:11;;;;;;;43.45;17.70;;;;;;;;;;5031068;28;20045;-66
2022/01/11 12:50:56;;;;;;;36.53;16.80;;;;;;;;;;5023884;28;20034;-66
2022/01/11 12:53:22;;;;;;;37.30;16.13;;;;;;;;;;5026175;28;20053;-59
2022/01/11 12:55:47;;;;;;;43.40;17.30;;;;;;;;;;5032805;28;20499;-56
2022/01/11 12:58:16;;;;;;;33.88;15.45;;;;;;;;;;5020945;28;20460;-59
2022/01/11 13:00:42;;;;;;;45.05;16.95;;;;;;;;;;5026948;28;20093;-62
2022/01/11 13:03:07;;;;;;;44.22;16.38;;;;;;;;;;5028070;28;20124;-59
2022/01/11 13:05:35;;;;;;;38.25;15.57;;;;;;;;;;5032601;28;20037;-60
2022/01/11 13:08:02;;;;;;;44.67;18.27;;;;;;;;;;5030799;28;20052;-65
2022/01/11 13:10:28;;;;;;;46.05;17.35;;;;;;;;;;5022964;28;20120;-61
2022/01/11 13:13:16;;;;;;;47.10;17.60;;;;;;;;;;5027627;28;20140;-59
2022/01/11 13:15:45;;;;;;;44.88;16.27;;;;;;;;;;5024546;28;20480;-59
2022/01/11 13:18:14;;;;;;;38.50;16.00;;;;;;;;;;5028616;28;20042;-58
2022/01/11 13:20:46;;;;;;;37.03;16.10;;;;;;;;;;5032332;28;20116;-58
2022/01/11 13:26:15;;;;;;;39.75;15.02;;;;;;;;;;5074559;28;20032;-63
2022/01/11 13:28:48;;;;;;;38.45;17.00;;;;;;;;;;5093528;28;20639;-55
2022/01/11 13:31:17;;;;;;;39.92;16.63;;;;;;;;;;5079041;28;20020;-65
2022/01/11 13:33:48;;;;;;;37.60;16.97;;;;;;;;;;5083019;28;20036;-63
2022/01/11 13:36:20;;;;;;;37.22;15.93;;;;;;;;;;5081809;28;20020;-64
2022/01/11 13:38:56;;;;;;;37.58;17.23;;;;;;;;;;5084613;28;20521;-57
2022/01/11 13:41:32;;;;;;;38.13;16.42;;;;;;;;;;5085172;28;20062;-58
2022/01/11 13:44:00;;;;;;;33.20;15.55;;;;;;;;;;5090145;28;20058;-62
2022/01/11 13:46:27;;;;;;;30.95;14.20;;;;;;;;;;5085765;28;20078;-66
2022/01/11 13:48:54;;;;;;;39.65;15.68;;;;;;;;;;5057093;28;20387;-62
2022/01/11 13:51:28;;;;;;;54.17;17.73;;;;;;;;;;5090673;28;20027;-60
2022/01/11 13:54:02;;;;;;;39.42;17.42;;;;;;;;;;5082599;28;20494;-64
2022/01/11 13:56:33;;;;;;;41.88;18.10;;;;;;;;;;5092593;28;20051;-63
2022/01/11 13:59:02;;;;;;;47.60;17.55;;;;;;;;;;5093999;28;20028;-63
2022/01/11 14:01:28;;;;;;;43.67;17.13;;;;;;;;;;5093200;28;20035;-58
2022/01/11 14:04:15;;;;;;;37.78;17.13;;;;;;;;;;5093860;28;20016;-55
2022/01/11 14:06:52;;;;;;;43.50;18.73;;;;;;;;;;5083183;28;20024;-61
2022/01/11 14:09:37;;;;;;;42.47;18.42;;;;;;;;;;5083249;28;20024;-62
2022/01/11 14:12:07;;;;;;;47.70;18.83;;;;;;;;;;5091578;28;20359;-58
2022/01/11 14:14:34;;;;;;;39.67;15.57;;;;;;;;;;5080349;28;20066;-60
2022/01/11 14:17:18;;;;;;;45.83;18.73;;;;;;;;;;5093540;28;20039;-58
2022/01/11 14:19:49;;;;;;;34.65;15.45;;;;;;;;;;5083781;28;20457;-59
2022/01/11 14:22:15;;;;;;;37.58;16.05;;;;;;;;;;5090003;28;20089;-59
2022/01/11 14:24:51;;;;;;;39.17;16.85;;;;;;;;;;5093531;28;20032;-55
2022/01/11 14:27:29;;;;;;;35.35;16.50;;;;;;;;;;5080750;28;20047;-61
2022/01/11 14:30:02;;;;;;;36.75;16.35;;;;;;;;;;5079871;28;20028;-61
2022/01/11 14:32:29;;;;;;;39.45;16.98;;;;;;;;;;5072863;28;20375;-59